Time;durP1;ratioP1;P1;durP2;ratioP2;P2;SDS_P1;SDS_P2;PMS_P1;PMS_P2;Temp;Humidity;BMP_temperature;BMP_pressure;BME280_temperature;BME280_humidity;BME280_pressure;Samples;Min_cycle;Max_cycle;Signal;HPM_P1;HPM_P2
2022/01/02 00:00:33;;;;;;;9.43;6.60;;;;;;;;;;5060133;28;20821;-79
2022/01/02 00:03:02;;;;;;;7.60;5.87;;;;;;;;;;5061412;28;20450;-79
2022/01/02 00:05:30;;;;;;;10.03;7.43;;;;;;;;;;5061945;28;20447;-79
2022/01/02 00:07:58;;;;;;;11.77;7.33;;;;;;;;;;5061141;28;20554;-79
2022/01/02 00:10:25;;;;;;;12.67;7.13;;;;;;;;;;5061045;28;20490;-79
2022/01/02 00:12:56;;;;;;;10.27;7.53;;;;;;;;;;5060365;28;20993;-79
2022/01/02 00:15:24;;;;;;;12.13;7.50;;;;;;;;;;5061163;28;20504;-79
2022/01/02 00:17:51;;;;;;;10.23;7.20;;;;;;;;;;5060024;28;20471;-79
2022/01/02 00:20:19;;;;;;;10.23;7.23;;;;;;;;;;5061191;28;20460;-78
2022/01/02 00:22:49;;;;;;;9.60;6.87;;;;;;;;;;5061208;28;20467;-78
2022/01/02 00:25:25;;;;;;;10.50;6.80;;;;;;;;;;5061878;28;20562;-79
2022/01/02 00:27:52;;;;;;;8.10;7.30;;;;;;;;;;5061470;28;20542;-79
2022/01/02 00:30:19;;;;;;;9.83;7.63;;;;;;;;;;5061842;28;20494;-79
2022/01/02 00:32:46;;;;;;;11.77;6.57;;;;;;;;;;5061617;28;20474;-79
2022/01/02 00:35:14;;;;;;;8.97;7.33;;;;;;;;;;5060263;28;20837;-79
2022/01/02 00:37:40;;;;;;;12.00;7.70;;;;;;;;;;5060205;28;20528;-78
2022/01/02 00:40:07;;;;;;;8.83;6.33;;;;;;;;;;5060471;28;20436;-78
2022/01/02 00:42:36;;;;;;;12.40;6.80;;;;;;;;;;5062271;28;20540;-79
2022/01/02 00:45:04;;;;;;;9.10;7.40;;;;;;;;;;5060163;28;20446;-78
2022/01/02 00:47:33;;;;;;;9.50;6.90;;;;;;;;;;5061555;28;20890;-79
2022/01/02 00:50:04;;;;;;;10.43;7.20;;;;;;;;;;5059857;28;20866;-79
2022/01/02 00:52:30;;;;;;;9.57;7.83;;;;;;;;;;5061743;28;20529;-80
2022/01/02 00:54:57;;;;;;;8.40;7.13;;;;;;;;;;5060730;28;20444;-79
2022/01/02 00:57:27;;;;;;;11.47;6.67;;;;;;;;;;5059295;28;20466;-79
2022/01/02 00:59:57;;;;;;;9.87;7.67;;;;;;;;;;5059889;28;20564;-78
2022/01/02 01:02:27;;;;;;;15.17;7.43;;;;;;;;;;5061173;28;20874;-79
2022/01/02 01:04:56;;;;;;;15.97;7.13;;;;;;;;;;5060652;28;20510;-80
2022/01/02 01:07:24;;;;;;;8.10;7.27;;;;;;;;;;5060669;28;20474;-80
2022/01/02 01:09:51;;;;;;;10.33;7.40;;;;;;;;;;5060016;28;20497;-78
2022/01/02 01:12:18;;;;;;;11.00;7.20;;;;;;;;;;5061888;28;21084;-79
2022/01/02 01:14:46;;;;;;;11.53;8.03;;;;;;;;;;5061814;28;20455;-80
2022/01/02 01:17:14;;;;;;;8.63;6.63;;;;;;;;;;5060687;28;20471;-80
2022/01/02 01:19:40;;;;;;;10.73;8.10;;;;;;;;;;5060026;28;20450;-79
2022/01/02 01:22:06;;;;;;;11.87;8.43;;;;;;;;;;5061645;28;20476;-79
2022/01/02 01:24:35;;;;;;;12.33;8.43;;;;;;;;;;5061289;28;20492;-79
2022/01/02 01:27:03;;;;;;;14.27;9.40;;;;;;;;;;5061255;28;20521;-79
2022/01/02 01:29:34;;;;;;;12.40;8.87;;;;;;;;;;5061833;28;20999;-79
2022/01/02 01:32:00;;;;;;;13.43;9.50;;;;;;;;;;5058955;28;20475;-79
2022/01/02 01:34:26;;;;;;;16.87;9.70;;;;;;;;;;5063123;28;20456;-79
2022/01/02 01:36:52;;;;;;;13.57;9.30;;;;;;;;;;5059186;28;20529;-79
2022/01/02 01:39:19;;;;;;;11.93;8.80;;;;;;;;;;5059718;28;20443;-79
2022/01/02 01:41:47;;;;;;;12.30;9.30;;;;;;;;;;5059703;28;20533;-78
2022/01/02 01:44:28;;;;;;;12.23;8.90;;;;;;;;;;5060682;28;20443;-79
2022/01/02 01:46:55;;;;;;;16.67;10.67;;;;;;;;;;5059968;28;20480;-79
2022/01/02 01:49:23;;;;;;;16.57;10.43;;;;;;;;;;5061002;28;20467;-79
2022/01/02 01:51:50;;;;;;;12.47;9.23;;;;;;;;;;5057371;28;20514;-79
2022/01/02 01:54:16;;;;;;;15.53;10.50;;;;;;;;;;5059673;28;20451;-79
2022/01/02 01:56:43;;;;;;;16.33;9.80;;;;;;;;;;5059599;28;20517;-78
2022/01/02 01:59:10;;;;;;;16.80;10.20;;;;;;;;;;5060016;28;20447;-80
2022/01/02 02:01:36;;;;;;;14.00;10.63;;;;;;;;;;5057395;28;20475;-78
2022/01/02 02:04:03;;;;;;;15.87;9.40;;;;;;;;;;5059470;28;20442;-78
2022/01/02 02:06:29;;;;;;;14.47;10.70;;;;;;;;;;5058092;28;20521;-80
2022/01/02 02:08:59;;;;;;;17.07;10.10;;;;;;;;;;5059862;28;20525;-79
2022/01/02 02:11:25;;;;;;;15.20;9.90;;;;;;;;;;5058082;28;20474;-79
2022/01/02 02:13:52;;;;;;;16.20;9.23;;;;;;;;;;5059051;28;20459;-79
2022/01/02 02:16:19;;;;;;;14.23;9.83;;;;;;;;;;5056964;28;20472;-79
2022/01/02 02:18:45;;;;;;;13.03;9.57;;;;;;;;;;5058050;28;20500;-79
2022/01/02 02:21:13;;;;;;;15.27;10.07;;;;;;;;;;5056808;28;20487;-79
2022/01/02 02:23:39;;;;;;;19.10;10.70;;;;;;;;;;5058950;28;20419;-79
2022/01/02 02:26:06;;;;;;;16.23;10.70;;;;;;;;;;5059380;28;20497;-79
2022/01/02 02:28:32;;;;;;;12.10;10.13;;;;;;;;;;5060361;28;20444;-79
2022/01/02 02:30:58;;;;;;;17.73;10.83;;;;;;;;;;5058617;28;21090;-79
2022/01/02 02:33:25;;;;;;;17.70;10.60;;;;;;;;;;5057687;28;20466;-78
2022/01/02 02:35:51;;;;;;;14.23;11.73;;;;;;;;;;5057489;28;20594;-79
2022/01/02 02:38:20;;;;;;;15.80;11.37;;;;;;;;;;5058879;28;20470;-79
2022/01/02 02:40:46;;;;;;;19.80;11.90;;;;;;;;;;5057606;28;20476;-78
2022/01/02 02:43:24;;;;;;;20.80;11.67;;;;;;;;;;5060503;28;20478;-79
2022/01/02 02:51:18;;;;;;;25.67;11.80;;;;;;;;;;5053559;28;20559;-79
2022/01/02 02:53:47;;;;;;;15.53;10.70;;;;;;;;;;5060649;28;20501;-78
2022/01/02 02:56:17;;;;;;;22.03;12.83;;;;;;;;;;5061298;28;20460;-78
2022/01/02 02:58:43;;;;;;;15.83;11.07;;;;;;;;;;5062304;28;20454;-79
2022/01/02 03:01:10;;;;;;;19.13;11.30;;;;;;;;;;5062271;28;20513;-79
2022/01/02 03:03:37;;;;;;;19.90;11.87;;;;;;;;;;5061828;28;20456;-79
2022/01/02 03:06:03;;;;;;;19.43;11.60;;;;;;;;;;5061918;28;20509;-78
2022/01/02 03:08:30;;;;;;;16.10;11.87;;;;;;;;;;5060532;28;20505;-78
2022/01/02 03:10:58;;;;;;;16.17;12.00;;;;;;;;;;5060701;28;20487;-78
2022/01/02 03:13:24;;;;;;;17.17;11.33;;;;;;;;;;5060279;28;20548;-79
2022/01/02 03:15:50;;;;;;;16.03;12.00;;;;;;;;;;5060881;28;20526;-78
2022/01/02 03:18:17;;;;;;;18.33;11.37;;;;;;;;;;5060013;28;20559;-79
2022/01/02 03:20:43;;;;;;;16.63;11.10;;;;;;;;;;5062208;28;20463;-77
2022/01/02 03:23:09;;;;;;;18.90;13.27;;;;;;;;;;5060889;28;21054;-78
2022/01/02 03:25:36;;;;;;;17.37;11.20;;;;;;;;;;5060403;28;20451;-78
2022/01/02 03:28:03;;;;;;;22.57;11.73;;;;;;;;;;5061703;28;20467;-78
2022/01/02 03:30:29;;;;;;;16.47;11.00;;;;;;;;;;5061795;28;20471;-78
2022/01/02 03:32:56;;;;;;;14.53;11.30;;;;;;;;;;5061664;28;20471;-79
2022/01/02 03:35:22;;;;;;;14.40;10.80;;;;;;;;;;5061768;28;20513;-78
2022/01/02 03:37:50;;;;;;;15.67;10.73;;;;;;;;;;5062447;28;20475;-79
2022/01/02 03:40:16;;;;;;;18.57;11.87;;;;;;;;;;5058542;28;20549;-79
2022/01/02 03:42:42;;;;;;;19.40;11.30;;;;;;;;;;5061551;28;20524;-77
2022/01/02 03:45:10;;;;;;;13.70;11.90;;;;;;;;;;5062203;28;20448;-78
2022/01/02 03:47:37;;;;;;;21.33;11.93;;;;;;;;;;5062139;28;21004;-79
2022/01/02 03:50:03;;;;;;;20.33;12.47;;;;;;;;;;5061359;28;20440;-79
2022/01/02 03:52:30;;;;;;;16.20;11.77;;;;;;;;;;5060573;28;20446;-78
2022/01/02 03:54:57;;;;;;;18.40;11.30;;;;;;;;;;5060819;28;20482;-79
2022/01/02 03:57:23;;;;;;;16.03;11.23;;;;;;;;;;5058496;28;20471;-79
2022/01/02 03:59:49;;;;;;;21.80;11.00;;;;;;;;;;5059054;28;20459;-78
2022/01/02 04:02:17;;;;;;;18.00;11.20;;;;;;;;;;5061089;28;20463;-78
2022/01/02 04:04:43;;;;;;;20.63;10.97;;;;;;;;;;5060298;28;20501;-77
2022/01/02 04:07:09;;;;;;;18.10;11.13;;;;;;;;;;5060341;28;20528;-79
2022/01/02 04:09:36;;;;;;;16.50;12.03;;;;;;;;;;5058780;28;20532;-78
2022/01/02 04:12:02;;;;;;;19.67;11.80;;;;;;;;;;5059163;28;20471;-76
2022/01/02 04:14:28;;;;;;;19.73;11.23;;;;;;;;;;5059353;28;20454;-78
2022/01/02 04:16:54;;;;;;;15.30;10.63;;;;;;;;;;5060855;28;20483;-78
2022/01/02 04:19:22;;;;;;;16.93;9.83;;;;;;;;;;5058302;28;20890;-79
2022/01/02 04:21:48;;;;;;;17.43;10.87;;;;;;;;;;5058406;28;20478;-79
2022/01/02 04:24:15;;;;;;;16.20;10.80;;;;;;;;;;5060581;28;20470;-78
2022/01/02 04:26:41;;;;;;;19.43;11.00;;;;;;;;;;5060981;28;20463;-79
2022/01/02 04:29:07;;;;;;;17.80;10.40;;;;;;;;;;5060695;28;20463;-79
2022/01/02 04:31:33;;;;;;;15.23;10.90;;;;;;;;;;5057969;28;20487;-79
2022/01/02 04:34:00;;;;;;;21.83;11.93;;;;;;;;;;5060723;28;20486;-78
2022/01/02 04:36:27;;;;;;;17.40;11.50;;;;;;;;;;5061327;28;20471;-79
2022/01/02 04:38:53;;;;;;;16.10;12.00;;;;;;;;;;5060091;28;20455;-78
2022/01/02 04:41:20;;;;;;;20.80;11.50;;;;;;;;;;5060835;28;20510;-78
2022/01/02 04:43:46;;;;;;;16.63;11.00;;;;;;;;;;5059063;28;20510;-78
2022/01/02 04:46:12;;;;;;;16.40;10.20;;;;;;;;;;5061402;28;20493;-79
2022/01/02 04:48:38;;;;;;;20.60;11.07;;;;;;;;;;5060493;28;20824;-79
2022/01/02 04:51:05;;;;;;;16.60;10.50;;;;;;;;;;5061151;28;20479;-78
2022/01/02 04:53:35;;;;;;;14.10;10.57;;;;;;;;;;5061073;28;20532;-79
2022/01/02 04:56:01;;;;;;;24.50;13.40;;;;;;;;;;5060641;28;20443;-79
2022/01/02 04:58:28;;;;;;;16.70;10.93;;;;;;;;;;5058789;28;20455;-78
2022/01/02 05:00:54;;;;;;;22.50;13.20;;;;;;;;;;5059821;28;20467;-78
2022/01/02 05:03:20;;;;;;;17.83;10.20;;;;;;;;;;5039986;28;20467;-78
2022/01/02 05:05:46;;;;;;;16.40;9.80;;;;;;;;;;5040356;28;20468;-78
2022/01/02 05:08:12;;;;;;;17.63;10.43;;;;;;;;;;5040544;28;20527;-78
2022/01/02 05:10:40;;;;;;;16.70;11.27;;;;;;;;;;5041592;28;20475;-78
2022/01/02 05:13:06;;;;;;;19.17;11.10;;;;;;;;;;5056404;28;20468;-78
2022/01/02 05:15:33;;;;;;;17.23;9.97;;;;;;;;;;5058481;28;20443;-78
2022/01/02 05:17:59;;;;;;;16.53;9.80;;;;;;;;;;5056505;28;20486;-76
2022/01/02 05:20:25;;;;;;;17.27;10.50;;;;;;;;;;5060390;28;20474;-78
2022/01/02 05:22:52;;;;;;;16.00;10.67;;;;;;;;;;5057550;28;20475;-78
2022/01/02 05:25:19;;;;;;;16.87;10.90;;;;;;;;;;5058762;28;20546;-78
2022/01/02 05:27:46;;;;;;;16.60;9.20;;;;;;;;;;5056695;28;20892;-79
2022/01/02 05:30:12;;;;;;;17.70;9.67;;;;;;;;;;5058359;28;20894;-79
2022/01/02 05:32:39;;;;;;;17.47;10.73;;;;;;;;;;5057082;28;20516;-79
2022/01/02 05:35:05;;;;;;;17.50;10.00;;;;;;;;;;5060745;28;20471;-79
2022/01/02 05:37:32;;;;;;;18.57;10.40;;;;;;;;;;5058294;28;20471;-78
2022/01/02 05:39:58;;;;;;;14.20;9.23;;;;;;;;;;5057855;28;20498;-77
2022/01/02 05:42:24;;;;;;;17.50;9.50;;;;;;;;;;5056616;28;20823;-78
2022/01/02 05:44:52;;;;;;;12.80;9.50;;;;;;;;;;5058482;28;20448;-78
2022/01/02 05:47:18;;;;;;;18.07;9.60;;;;;;;;;;5056764;28;20462;-78
2022/01/02 05:49:44;;;;;;;14.40;9.23;;;;;;;;;;5057822;28;20446;-78
2022/01/02 05:52:11;;;;;;;19.57;9.47;;;;;;;;;;5057995;28;20441;-78
2022/01/02 05:54:37;;;;;;;18.63;9.13;;;;;;;;;;5056530;28;20440;-78
2022/01/02 05:57:03;;;;;;;12.50;9.50;;;;;;;;;;5057338;28;20460;-77
2022/01/02 05:59:29;;;;;;;16.07;9.50;;;;;;;;;;5058254;28;20496;-78
2022/01/02 06:01:57;;;;;;;14.30;8.90;;;;;;;;;;5057396;28;20563;-78
2022/01/02 06:04:24;;;;;;;15.10;8.37;;;;;;;;;;5058559;28;20460;-78
2022/01/02 06:06:50;;;;;;;14.63;8.13;;;;;;;;;;5056663;28;20483;-79
2022/01/02 06:09:16;;;;;;;16.43;9.73;;;;;;;;;;5056416;28;20447;-78
2022/01/02 06:11:42;;;;;;;20.70;11.10;;;;;;;;;;5058068;28;20471;-76
2022/01/02 06:14:08;;;;;;;12.03;8.07;;;;;;;;;;5057339;28;20448;-78
2022/01/02 06:16:35;;;;;;;16.77;8.63;;;;;;;;;;5058129;28;20490;-78
2022/01/02 06:19:02;;;;;;;14.00;8.27;;;;;;;;;;5062048;28;20961;-78
2022/01/02 06:21:28;;;;;;;22.90;9.73;;;;;;;;;;5062033;28;20837;-78
2022/01/02 06:23:55;;;;;;;14.37;8.43;;;;;;;;;;5061487;28;20915;-78
2022/01/02 06:26:21;;;;;;;19.77;8.93;;;;;;;;;;5062732;28;20520;-77
2022/01/02 06:28:47;;;;;;;18.33;9.70;;;;;;;;;;5061404;28;20442;-78
2022/01/02 06:31:13;;;;;;;15.37;8.77;;;;;;;;;;5061030;28;20510;-78
2022/01/02 06:33:40;;;;;;;22.90;8.67;;;;;;;;;;5060876;28;20479;-78
2022/01/02 06:36:08;;;;;;;18.60;10.47;;;;;;;;;;5059660;28;20494;-78
2022/01/02 06:38:34;;;;;;;20.63;11.83;;;;;;;;;;5061629;28;20459;-78
2022/01/02 06:41:00;;;;;;;20.17;9.93;;;;;;;;;;5060263;28;20514;-77
2022/01/02 06:43:26;;;;;;;20.20;9.47;;;;;;;;;;5061702;28;20440;-78
2022/01/02 06:45:53;;;;;;;19.73;9.70;;;;;;;;;;5062597;28;20451;-78
2022/01/02 06:48:19;;;;;;;11.97;8.10;;;;;;;;;;5059035;28;20479;-78
2022/01/02 06:50:45;;;;;;;24.70;9.47;;;;;;;;;;5060830;28;20474;-78
2022/01/02 06:53:13;;;;;;;12.03;6.40;;;;;;;;;;5060663;28;20470;-79
2022/01/02 06:55:39;;;;;;;23.23;9.37;;;;;;;;;;5062055;28;20452;-78
2022/01/02 06:58:06;;;;;;;10.20;6.40;;;;;;;;;;5059217;28;20533;-77
2022/01/02 07:00:32;;;;;;;15.07;6.27;;;;;;;;;;5062926;28;20467;-78
2022/01/02 07:02:59;;;;;;;8.57;5.73;;;;;;;;;;5059854;28;20464;-78
2022/01/02 07:05:25;;;;;;;9.13;5.60;;;;;;;;;;5059809;28;20447;-78
2022/01/02 07:07:52;;;;;;;11.57;6.13;;;;;;;;;;5060758;28;20527;-78
2022/01/02 07:10:20;;;;;;;15.60;5.57;;;;;;;;;;5062008;28;21062;-78
2022/01/02 07:12:46;;;;;;;8.90;4.50;;;;;;;;;;5059548;28;20475;-78
2022/01/02 07:15:12;;;;;;;13.33;5.40;;;;;;;;;;5062898;28;20459;-80
2022/01/02 07:17:39;;;;;;;11.53;5.30;;;;;;;;;;5064641;28;20470;-80
2022/01/02 07:20:06;;;;;;;8.70;5.07;;;;;;;;;;5063278;28;20546;-80
2022/01/02 07:22:32;;;;;;;10.33;5.57;;;;;;;;;;5063239;28;20474;-80
2022/01/02 07:24:58;;;;;;;11.00;5.03;;;;;;;;;;5060986;28;20447;-79
2022/01/02 07:27:26;;;;;;;9.00;4.10;;;;;;;;;;5060413;28;20893;-79
2022/01/02 07:29:55;;;;;;;10.33;5.30;;;;;;;;;;5060725;28;20508;-76
2022/01/02 07:32:21;;;;;;;14.17;5.33;;;;;;;;;;5060973;28;20498;-78
2022/01/02 07:34:47;;;;;;;10.57;5.27;;;;;;;;;;5059378;28;20920;-78
2022/01/02 07:37:13;;;;;;;7.37;5.20;;;;;;;;;;5061904;28;20516;-79
2022/01/02 07:39:40;;;;;;;18.80;5.07;;;;;;;;;;5060144;28;20465;-78
2022/01/02 07:42:06;;;;;;;12.33;5.10;;;;;;;;;;5058621;28;20471;-78
2022/01/02 07:44:34;;;;;;;11.17;5.10;;;;;;;;;;5061785;28;20448;-78
2022/01/02 07:47:00;;;;;;;10.40;5.40;;;;;;;;;;5059247;28;20482;-78
2022/01/02 07:49:26;;;;;;;12.70;5.60;;;;;;;;;;5061802;28;20865;-78
2022/01/02 07:51:52;;;;;;;8.87;4.93;;;;;;;;;;5058820;28;20881;-78
2022/01/02 07:54:18;;;;;;;7.47;4.90;;;;;;;;;;5058611;28;21004;-79
2022/01/02 07:56:45;;;;;;;9.37;5.80;;;;;;;;;;5058953;28;21191;-78
2022/01/02 07:59:12;;;;;;;9.40;5.90;;;;;;;;;;5060326;28;20447;-79
2022/01/02 08:01:39;;;;;;;7.80;5.40;;;;;;;;;;5057990;28;20508;-78
2022/01/02 08:04:06;;;;;;;9.83;6.20;;;;;;;;;;5059948;28;20441;-78
2022/01/02 08:06:32;;;;;;;10.47;5.60;;;;;;;;;;5061378;28;20996;-79
2022/01/02 08:08:58;;;;;;;13.40;6.83;;;;;;;;;;5058596;28;20439;-78
2022/01/02 08:11:25;;;;;;;14.57;6.57;;;;;;;;;;5059840;28;20503;-78
2022/01/02 08:13:51;;;;;;;8.70;6.53;;;;;;;;;;5061038;28;20471;-79
2022/01/02 08:16:17;;;;;;;9.50;6.43;;;;;;;;;;5059462;28;20520;-78
2022/01/02 08:18:45;;;;;;;10.10;5.57;;;;;;;;;;5058276;28;20447;-78
2022/01/02 08:21:11;;;;;;;12.03;5.83;;;;;;;;;;5057842;28;20980;-78
2022/01/02 08:23:37;;;;;;;10.63;6.23;;;;;;;;;;5058289;28;21005;-79
2022/01/02 08:26:04;;;;;;;16.30;6.33;;;;;;;;;;5059581;28;20505;-79
2022/01/02 08:28:30;;;;;;;6.93;5.40;;;;;;;;;;5059928;28;20415;-79
2022/01/02 08:30:56;;;;;;;13.00;7.00;;;;;;;;;;5058588;28;20458;-78
2022/01/02 08:33:22;;;;;;;16.00;6.10;;;;;;;;;;5060434;28;20478;-78
2022/01/02 08:35:50;;;;;;;15.10;6.17;;;;;;;;;;5058723;28;20435;-79
2022/01/02 08:38:16;;;;;;;10.80;5.73;;;;;;;;;;5057234;28;20467;-79
2022/01/02 08:40:43;;;;;;;11.53;5.80;;;;;;;;;;5059421;28;20516;-78
2022/01/02 08:43:10;;;;;;;10.23;6.20;;;;;;;;;;5059462;28;20466;-79
2022/01/02 08:45:37;;;;;;;10.97;6.67;;;;;;;;;;5058947;28;20432;-78
2022/01/02 08:48:04;;;;;;;8.70;7.17;;;;;;;;;;5057554;28;20549;-78
2022/01/02 08:50:30;;;;;;;6.63;4.40;;;;;;;;;;5057894;28;20617;-79
2022/01/02 08:52:58;;;;;;;9.17;5.03;;;;;;;;;;5058698;28;20899;-79
2022/01/02 08:55:24;;;;;;;10.97;5.13;;;;;;;;;;5058487;28;20440;-79
2022/01/02 08:57:50;;;;;;;8.30;5.97;;;;;;;;;;5056903;28;20517;-78
2022/01/02 09:00:17;;;;;;;13.37;5.97;;;;;;;;;;5059888;28;20471;-79
2022/01/02 09:02:43;;;;;;;10.77;5.93;;;;;;;;;;5059247;28;20476;-79
2022/01/02 09:05:09;;;;;;;10.17;5.87;;;;;;;;;;5059980;28;20861;-78
2022/01/02 09:07:36;;;;;;;7.73;4.83;;;;;;;;;;5059866;28;20475;-79
2022/01/02 09:10:04;;;;;;;10.73;5.50;;;;;;;;;;5058832;28;20455;-79
2022/01/02 09:12:30;;;;;;;8.60;5.20;;;;;;;;;;5057100;28;20522;-79
2022/01/02 09:14:56;;;;;;;11.43;6.50;;;;;;;;;;5059057;28;20487;-79
2022/01/02 09:17:23;;;;;;;8.13;4.80;;;;;;;;;;5057857;28;20549;-79
2022/01/02 09:19:51;;;;;;;10.97;5.43;;;;;;;;;;5058775;28;20842;-79
2022/01/02 09:22:18;;;;;;;11.33;6.00;;;;;;;;;;5059537;28;20471;-79
2022/01/02 09:24:44;;;;;;;8.60;6.10;;;;;;;;;;5059039;28;20429;-78
2022/01/02 09:27:12;;;;;;;10.70;5.40;;;;;;;;;;5056487;28;20467;-79
2022/01/02 09:29:38;;;;;;;12.77;5.47;;;;;;;;;;5057902;28;20453;-79
2022/01/02 09:32:05;;;;;;;8.63;5.27;;;;;;;;;;5058289;28;20476;-79
2022/01/02 09:34:31;;;;;;;14.40;5.90;;;;;;;;;;5059780;28;20478;-79
2022/01/02 09:36:57;;;;;;;8.30;5.40;;;;;;;;;;5058076;28;20472;-79
2022/01/02 09:39:23;;;;;;;9.13;4.90;;;;;;;;;;5056503;28;20430;-78
2022/01/02 09:41:50;;;;;;;9.33;4.90;;;;;;;;;;5056819;28;20526;-78
2022/01/02 09:44:17;;;;;;;10.63;5.87;;;;;;;;;;5059246;28;20436;-79
2022/01/02 09:46:44;;;;;;;13.23;5.00;;;;;;;;;;5056298;28;20470;-78
2022/01/02 09:49:10;;;;;;;16.00;5.87;;;;;;;;;;5058896;28;20448;-79
2022/01/02 09:51:37;;;;;;;13.80;6.10;;;;;;;;;;5055028;28;20480;-79
2022/01/02 09:54:03;;;;;;;7.40;5.27;;;;;;;;;;5055186;28;20533;-79
2022/01/02 09:56:29;;;;;;;9.63;5.70;;;;;;;;;;5056400;28;20450;-78
2022/01/02 09:58:56;;;;;;;8.10;4.90;;;;;;;;;;5057464;28;20451;-79
2022/01/02 10:01:24;;;;;;;10.43;5.57;;;;;;;;;;5058007;28;20506;-79
2022/01/02 10:03:51;;;;;;;9.00;5.93;;;;;;;;;;5057631;28;21141;-78
2022/01/02 10:06:18;;;;;;;10.40;4.63;;;;;;;;;;5057447;28;20983;-79
2022/01/02 10:08:45;;;;;;;7.80;4.70;;;;;;;;;;5058458;28;20486;-78
2022/01/02 10:11:17;;;;;;;7.47;5.03;;;;;;;;;;5057237;28;20993;-79
2022/01/02 10:13:45;;;;;;;14.60;4.80;;;;;;;;;;5057938;28;20487;-79
2022/01/02 10:16:30;;;;;;;14.63;5.57;;;;;;;;;;5056733;28;20527;-78
2022/01/02 10:18:57;;;;;;;9.33;5.20;;;;;;;;;;5057143;28;20491;-78
2022/01/02 10:21:30;;;;;;;10.60;5.17;;;;;;;;;;5057311;28;20498;-78
2022/01/02 10:24:12;;;;;;;10.40;4.83;;;;;;;;;;5057097;28;20505;-78
2022/01/02 10:26:38;;;;;;;9.17;5.10;;;;;;;;;;5058748;28;20466;-78
2022/01/02 10:29:10;;;;;;;8.97;4.90;;;;;;;;;;5056318;28;20490;-78
2022/01/02 10:31:38;;;;;;;8.43;5.00;;;;;;;;;;5057171;28;20509;-78
2022/01/02 10:34:04;;;;;;;14.93;6.33;;;;;;;;;;5056875;28;20490;-78
2022/01/02 10:36:32;;;;;;;7.97;6.13;;;;;;;;;;5057686;28;20466;-79
2022/01/02 10:39:02;;;;;;;9.60;5.20;;;;;;;;;;5056820;28;20456;-78
2022/01/02 10:41:30;;;;;;;10.73;5.90;;;;;;;;;;5055270;28;20462;-79
2022/01/02 10:44:16;;;;;;;15.80;6.90;;;;;;;;;;5057308;28;21020;-78
2022/01/02 10:47:04;;;;;;;8.40;4.60;;;;;;;;;;5057584;28;20475;-78
2022/01/02 10:49:46;;;;;;;13.70;5.47;;;;;;;;;;5058558;28;20949;-78
2022/01/02 10:52:16;;;;;;;6.83;5.03;;;;;;;;;;5055862;28;20532;-78
2022/01/02 10:54:43;;;;;;;8.77;4.83;;;;;;;;;;5055500;28;21013;-78
2022/01/02 10:57:09;;;;;;;8.77;5.10;;;;;;;;;;5056352;28;20510;-79
2022/01/02 10:59:37;;;;;;;6.17;4.80;;;;;;;;;;5055606;28;20454;-78
2022/01/02 11:02:05;;;;;;;10.20;5.53;;;;;;;;;;5055324;28;20472;-78
2022/01/02 11:04:32;;;;;;;15.17;6.20;;;;;;;;;;5059063;28;20755;-78
2022/01/02 11:07:00;;;;;;;8.07;5.50;;;;;;;;;;5060932;28;21007;-78
2022/01/02 11:09:27;;;;;;;8.70;5.53;;;;;;;;;;5061580;28;20546;-80
2022/01/02 11:11:53;;;;;;;11.53;5.30;;;;;;;;;;5060363;28;20467;-78
2022/01/02 11:14:19;;;;;;;8.67;6.17;;;;;;;;;;5060004;28;20461;-79
2022/01/02 11:16:46;;;;;;;10.33;5.80;;;;;;;;;;5059180;28;21046;-78
2022/01/02 11:19:14;;;;;;;7.53;5.47;;;;;;;;;;5060518;28;20439;-78
2022/01/02 11:21:41;;;;;;;12.07;5.70;;;;;;;;;;5060120;28;20474;-78
2022/01/02 11:24:12;;;;;;;9.77;5.90;;;;;;;;;;5061060;28;20482;-79
2022/01/02 11:26:41;;;;;;;11.33;6.17;;;;;;;;;;5060522;28;20865;-79
2022/01/02 11:29:07;;;;;;;9.03;5.20;;;;;;;;;;5060725;28;20489;-78
2022/01/02 11:31:34;;;;;;;13.03;6.43;;;;;;;;;;5061025;28;20898;-78
2022/01/02 11:34:01;;;;;;;11.97;6.03;;;;;;;;;;5061079;28;20513;-78
2022/01/02 11:36:30;;;;;;;8.17;5.50;;;;;;;;;;5060787;28;20459;-78
2022/01/02 11:38:57;;;;;;;5.10;4.70;;;;;;;;;;5058372;28;20464;-79
2022/01/02 11:41:33;;;;;;;10.67;5.60;;;;;;;;;;5059419;28;21038;-79
2022/01/02 11:44:00;;;;;;;11.67;6.20;;;;;;;;;;5060655;28;20418;-79
2022/01/02 11:46:28;;;;;;;15.97;6.87;;;;;;;;;;5060820;28;20489;-79
2022/01/02 11:49:16;;;;;;;11.67;6.37;;;;;;;;;;5060696;28;20452;-79
2022/01/02 11:52:00;;;;;;;10.57;6.23;;;;;;;;;;5060464;28;20483;-78
2022/01/02 11:54:40;;;;;;;9.87;5.83;;;;;;;;;;5059655;28;20465;-79
2022/01/02 11:57:39;;;;;;;10.97;6.90;;;;;;;;;;5059964;28;20480;-78
2022/01/02 12:00:06;;;;;;;9.57;5.90;;;;;;;;;;5058260;28;20844;-79
2022/01/02 12:02:37;;;;;;;12.50;6.73;;;;;;;;;;5059984;28;20890;-78
2022/01/02 12:05:11;;;;;;;10.63;5.60;;;;;;;;;;5058294;28;20432;-79
2022/01/02 12:07:53;;;;;;;11.93;7.27;;;;;;;;;;5060271;28;20456;-79
2022/01/02 12:10:24;;;;;;;11.47;7.70;;;;;;;;;;5060572;28;20471;-79
2022/01/02 12:13:10;;;;;;;12.17;5.27;;;;;;;;;;5059853;28;20854;-80
2022/01/02 12:15:52;;;;;;;10.70;6.93;;;;;;;;;;5058469;28;20540;-78
2022/01/02 12:18:24;;;;;;;15.30;7.07;;;;;;;;;;5058411;28;20929;-79
2022/01/02 12:21:05;;;;;;;15.53;7.13;;;;;;;;;;5060342;28;20525;-78
2022/01/02 12:23:53;;;;;;;11.10;8.30;;;;;;;;;;5040157;28;21036;-79
2022/01/02 12:26:21;;;;;;;12.07;6.90;;;;;;;;;;5038281;28;20543;-78
2022/01/02 12:28:50;;;;;;;12.53;8.60;;;;;;;;;;5040725;28;20418;-78
2022/01/02 12:31:17;;;;;;;15.70;8.03;;;;;;;;;;5040742;28;20481;-75
2022/01/02 12:33:44;;;;;;;17.00;10.00;;;;;;;;;;5041318;28;20452;-78
2022/01/02 12:36:10;;;;;;;14.90;6.90;;;;;;;;;;5038362;28;20424;-78
2022/01/02 12:38:45;;;;;;;10.33;7.07;;;;;;;;;;5041374;28;20443;-79
2022/01/02 12:41:13;;;;;;;8.77;6.03;;;;;;;;;;5040458;28;20472;-79
2022/01/02 12:43:39;;;;;;;7.57;5.60;;;;;;;;;;5041379;28;20452;-79
2022/01/02 12:46:05;;;;;;;9.10;6.00;;;;;;;;;;5043247;28;20954;-80
2022/01/02 12:48:32;;;;;;;12.07;6.00;;;;;;;;;;5042058;28;20831;-79
2022/01/02 12:51:08;;;;;;;7.53;5.90;;;;;;;;;;5040246;28;21047;-78
2022/01/02 12:53:34;;;;;;;6.70;5.60;;;;;;;;;;5038660;28;20447;-78
2022/01/02 12:56:01;;;;;;;9.30;5.43;;;;;;;;;;5039412;28;20455;-78
2022/01/02 12:58:30;;;;;;;11.83;6.20;;;;;;;;;;5039844;28;20441;-79
2022/01/02 13:01:02;;;;;;;10.00;5.97;;;;;;;;;;5039098;28;20476;-78
2022/01/02 13:03:28;;;;;;;10.00;5.80;;;;;;;;;;5040250;28;20444;-78
2022/01/02 13:05:55;;;;;;;10.00;6.20;;;;;;;;;;5040544;28;20497;-79
2022/01/02 13:08:25;;;;;;;9.30;5.73;;;;;;;;;;5058826;28;20547;-79
2022/01/02 13:10:51;;;;;;;11.00;6.10;;;;;;;;;;5057220;28;20524;-78
2022/01/02 13:13:26;;;;;;;13.73;5.77;;;;;;;;;;5057617;28;20478;-79
2022/01/02 13:15:54;;;;;;;10.83;6.33;;;;;;;;;;5057759;28;20491;-78
2022/01/02 13:18:21;;;;;;;7.87;5.27;;;;;;;;;;5057087;28;20855;-78
2022/01/02 13:20:48;;;;;;;10.90;5.50;;;;;;;;;;5059595;28;20472;-79
2022/01/02 13:23:14;;;;;;;9.40;5.40;;;;;;;;;;5058181;28;20463;-78
2022/01/02 13:25:41;;;;;;;12.03;6.30;;;;;;;;;;5059291;28;20443;-78
2022/01/02 13:28:09;;;;;;;7.70;5.70;;;;;;;;;;5057872;28;20472;-78
2022/01/02 13:30:38;;;;;;;6.70;5.63;;;;;;;;;;5059670;28;20847;-78
2022/01/02 13:33:15;;;;;;;8.20;5.37;;;;;;;;;;5056396;28;21229;-78
2022/01/02 13:35:41;;;;;;;8.57;5.20;;;;;;;;;;5060291;28;20494;-78
2022/01/02 13:38:08;;;;;;;7.17;5.93;;;;;;;;;;5059021;28;20479;-78
2022/01/02 13:40:36;;;;;;;9.53;5.80;;;;;;;;;;5057464;28;20527;-78
2022/01/02 13:43:07;;;;;;;9.87;6.10;;;;;;;;;;5057235;28;21088;-78
2022/01/02 13:45:34;;;;;;;11.17;5.40;;;;;;;;;;5058946;28;20546;-79
2022/01/02 13:48:09;;;;;;;9.27;5.20;;;;;;;;;;5057841;28;20468;-78
2022/01/02 13:50:36;;;;;;;8.20;4.90;;;;;;;;;;5059304;28;20541;-78
2022/01/02 13:53:04;;;;;;;6.80;4.80;;;;;;;;;;5057166;28;20563;-78
2022/01/02 13:55:32;;;;;;;14.27;5.73;;;;;;;;;;5058501;28;20484;-76
2022/01/02 13:57:59;;;;;;;8.23;5.60;;;;;;;;;;5057048;28;21023;-76
2022/01/02 14:00:26;;;;;;;7.20;5.30;;;;;;;;;;5057654;28;20476;-79
2022/01/02 14:02:54;;;;;;;7.00;4.80;;;;;;;;;;5058449;28;20468;-79
2022/01/02 14:05:22;;;;;;;6.40;4.70;;;;;;;;;;5063095;28;20513;-80
2022/01/02 14:07:48;;;;;;;7.37;4.43;;;;;;;;;;5062890;28;20510;-78
2022/01/02 14:10:15;;;;;;;6.87;5.67;;;;;;;;;;5057645;28;20455;-77
2022/01/02 14:12:41;;;;;;;10.30;5.30;;;;;;;;;;5056082;28;20463;-79
2022/01/02 14:15:18;;;;;;;8.53;5.00;;;;;;;;;;5058767;28;20492;-79
2022/01/02 14:17:46;;;;;;;10.60;5.07;;;;;;;;;;5058249;28;20467;-79
2022/01/02 14:20:14;;;;;;;6.90;3.93;;;;;;;;;;5057376;28;20493;-78
2022/01/02 14:22:42;;;;;;;8.80;4.40;;;;;;;;;;5058074;28;20520;-79
2022/01/02 14:25:08;;;;;;;6.50;4.40;;;;;;;;;;5056783;28;20440;-79
2022/01/02 14:27:34;;;;;;;10.13;4.97;;;;;;;;;;5057167;28;20470;-78
2022/01/02 14:30:01;;;;;;;8.23;4.47;;;;;;;;;;5057186;28;20454;-78
2022/01/02 14:32:28;;;;;;;4.97;4.00;;;;;;;;;;5055689;28;20601;-78
2022/01/02 14:34:55;;;;;;;7.20;3.53;;;;;;;;;;5057613;28;20488;-78
2022/01/02 14:37:22;;;;;;;9.50;3.53;;;;;;;;;;5058790;28;20526;-78
2022/01/02 14:39:49;;;;;;;7.03;3.63;;;;;;;;;;5061380;28;21043;-79